createdAt,value
2023-04-24T00:00:34.637Z,16.27
2023-04-24T00:01:40.664Z,16.26
2023-04-24T00:02:48.426Z,16.27
2023-04-24T00:03:52.600Z,16.33
2023-04-24T00:05:03.809Z,16.26
2023-04-24T00:06:11.769Z,16.25
2023-04-24T00:07:18.176Z,16.24
2023-04-24T00:08:24.429Z,16.16
2023-04-24T00:09:28.765Z,16.16
2023-04-24T00:10:33.215Z,16.18
2023-04-24T00:11:40.751Z,16.11
2023-04-24T00:12:45.339Z,16.12
2023-04-24T00:13:49.347Z,16.12
2023-04-24T00:14:53.426Z,16.08
2023-04-24T00:16:01.061Z,16.04
2023-04-24T00:17:05.640Z,16.04
2023-04-24T00:18:09.781Z,16.10
2023-04-24T00:19:15.252Z,16.03
2023-04-24T00:20:20.223Z,15.94
2023-04-24T00:21:26.907Z,16.00
2023-04-24T00:22:32.269Z,15.97
2023-04-24T00:23:37.670Z,16.02
2023-04-24T00:24:42.490Z,16.04
2023-04-24T00:25:47.926Z,16.02
2023-04-24T00:26:51.806Z,16.02
2023-04-24T00:27:55.601Z,15.92
2023-04-24T00:28:59.309Z,15.94
2023-04-24T00:30:07.391Z,15.97
2023-04-24T00:31:11.292Z,15.96
2023-04-24T00:32:20.076Z,15.87
2023-04-24T00:33:27.076Z,15.82
2023-04-24T00:34:34.188Z,15.80
2023-04-24T00:35:38.147Z,15.78
2023-04-24T00:36:44.657Z,15.80
2023-04-24T00:37:49.964Z,15.79
2023-04-24T00:38:56.608Z,15.77
2023-04-24T00:40:01.607Z,15.76
2023-04-24T00:41:06.157Z,15.76
2023-04-24T00:42:13.476Z,15.73
2023-04-24T00:43:20.905Z,15.75
2023-04-24T00:44:31.101Z,15.76
2023-04-24T00:45:39.436Z,15.73
2023-04-24T00:46:45.042Z,15.71
2023-04-24T00:47:53.777Z,15.64
2023-04-24T00:49:00.849Z,15.59
2023-04-24T00:50:07.550Z,15.54
2023-04-24T00:51:12.646Z,15.43
2023-04-24T00:52:19.262Z,15.44
2023-04-24T00:53:23.694Z,15.41
2023-04-24T00:54:29.010Z,15.41
2023-04-24T00:55:35.518Z,15.44
2023-04-24T00:56:41.586Z,15.51
2023-04-24T00:57:46.944Z,15.43
2023-04-24T00:58:52.439Z,15.48
2023-04-24T00:59:59.453Z,15.39
2023-04-24T01:01:18.646Z,15.32
2023-04-24T01:02:41.609Z,15.29
2023-04-24T01:03:47.564Z,15.25
2023-04-24T01:04:53.003Z,15.24
2023-04-24T01:05:58.204Z,15.24
2023-04-24T01:07:02.455Z,15.25
2023-04-24T01:08:08.453Z,15.31
2023-04-24T01:09:14.316Z,15.27
2023-04-24T01:10:19.276Z,15.32
2023-04-24T01:11:23.801Z,15.28
2023-04-24T01:12:28.062Z,15.28
2023-04-24T01:13:34.404Z,15.25
2023-04-24T01:14:40.128Z,15.20
2023-04-24T01:15:43.722Z,15.10
2023-04-24T01:16:48.271Z,15.15
2023-04-24T01:17:54.789Z,15.14
2023-04-24T01:19:01.883Z,15.11
2023-04-24T01:20:08.280Z,15.06
2023-04-24T01:21:21.631Z,14.97
2023-04-24T01:22:35.681Z,14.99
2023-04-24T01:24:09.406Z,14.95
2023-04-24T01:25:31.889Z,14.94
2023-04-24T01:26:51.221Z,14.90
2023-04-24T01:27:57.366Z,14.88
2023-04-24T01:29:03.748Z,14.87
2023-04-24T01:30:09.472Z,14.84
2023-04-24T01:31:23.498Z,14.91
2023-04-24T01:32:30.119Z,14.87
2023-04-24T01:33:42.148Z,14.81
2023-04-24T01:34:48.007Z,14.76
2023-04-24T01:35:52.210Z,14.68
2023-04-24T01:36:57.181Z,14.72
2023-04-24T01:38:01.306Z,14.69
2023-04-24T01:39:07.040Z,14.65
2023-04-24T01:40:11.795Z,14.65
2023-04-24T01:41:15.547Z,14.68
2023-04-24T01:42:20.642Z,14.63
2023-04-24T01:43:26.071Z,14.67
2023-04-24T01:44:30.470Z,14.60
2023-04-24T01:45:34.460Z,14.55
2023-04-24T01:46:39.228Z,14.63
2023-04-24T01:47:46.429Z,14.67
2023-04-24T01:48:55.929Z,14.61
2023-04-24T01:50:00.671Z,14.57
2023-04-24T01:51:05.010Z,14.54
2023-04-24T01:52:09.413Z,14.58
2023-04-24T01:53:13.705Z,14.57
2023-04-24T01:54:17.637Z,14.59
2023-04-24T01:55:25.124Z,14.52
2023-04-24T01:56:34.248Z,14.46
2023-04-24T01:57:38.319Z,14.35
2023-04-24T01:58:42.992Z,14.41
2023-04-24T01:59:47.233Z,14.48
2023-04-24T02:00:51.743Z,14.45
2023-04-24T02:01:55.772Z,14.46
2023-04-24T02:03:00.404Z,14.37
2023-04-24T03:09:05.645Z,13.23
2023-04-24T03:10:12.512Z,13.20
2023-04-24T03:11:26.605Z,13.22
2023-04-24T03:12:31.396Z,13.20
2023-04-24T03:13:38.301Z,13.15
2023-04-24T03:14:44.465Z,13.20
2023-04-24T03:15:57.946Z,13.22
2023-04-24T03:17:11.627Z,13.23
2023-04-24T03:18:19.782Z,13.17
2023-04-24T03:19:27.068Z,13.24
2023-04-24T03:20:34.225Z,13.30
2023-04-24T03:21:42.830Z,13.24
2023-04-24T03:22:50.261Z,13.28
2023-04-24T03:24:10.812Z,13.27
2023-04-24T03:25:29.239Z,13.25
2023-04-24T03:26:59.557Z,13.28
2023-04-24T03:28:18.037Z,13.31
2023-04-24T03:29:34.476Z,13.32
2023-04-24T03:30:41.076Z,13.30
2023-04-24T03:31:54.893Z,13.28
2023-04-24T03:33:03.499Z,13.27
2023-04-24T03:34:08.316Z,13.32
2023-04-24T03:35:12.524Z,13.27
2023-04-24T03:36:16.507Z,13.27
2023-04-24T03:37:20.409Z,13.30
2023-04-24T03:38:24.114Z,13.22
2023-04-24T03:39:28.535Z,13.20
2023-04-24T03:40:37.896Z,13.21
2023-04-24T03:41:42.608Z,13.16
2023-04-24T03:42:46.319Z,13.13
2023-04-24T03:43:52.190Z,13.14
2023-04-24T03:44:56.060Z,13.19
2023-04-24T03:46:00.178Z,13.22
2023-04-24T03:47:03.961Z,13.15
2023-04-24T03:48:25.337Z,13.08
2023-04-24T03:49:36.621Z,13.11
2023-04-24T03:50:46.572Z,13.11
2023-04-24T03:52:15.930Z,13.15
2023-04-24T03:53:27.518Z,13.18
2023-04-24T03:54:35.903Z,13.06
2023-04-24T03:55:43.617Z,13.08
2023-04-24T03:56:50.361Z,13.16
2023-04-24T03:58:07.361Z,13.10
2023-04-24T03:59:13.178Z,13.03
2023-04-24T04:00:28.824Z,13.04
2023-04-24T04:01:44.102Z,13.01
2023-04-24T04:03:05.602Z,12.94
2023-04-24T04:05:50.715Z,13.01
2023-04-24T04:07:07.689Z,13.05
2023-04-24T04:08:23.879Z,13.04
2023-04-24T04:09:27.907Z,13.07
2023-04-24T04:10:32.476Z,13.07
2023-04-24T04:11:37.760Z,13.10
2023-04-24T04:12:42.891Z,13.12
2023-04-24T04:13:49.221Z,13.16
2023-04-24T04:14:53.388Z,13.10
2023-04-24T04:15:57.497Z,13.12
2023-04-24T04:17:05.190Z,13.17
2023-04-24T04:18:32.460Z,13.17
2023-04-24T04:19:44.824Z,13.24
2023-04-24T04:21:01.671Z,13.25
2023-04-24T04:22:09.290Z,13.27
2023-04-24T04:23:13.250Z,13.23
2023-04-24T04:25:49.725Z,13.38
2023-04-24T04:26:57.827Z,13.42
2023-04-24T04:28:03.339Z,13.42
2023-04-24T04:29:07.942Z,13.42
2023-04-24T04:30:16.049Z,13.43
2023-04-24T04:31:50.625Z,13.48
2023-04-24T04:33:03.651Z,13.55
2023-04-24T04:34:27.205Z,13.56
2023-04-24T04:35:39.937Z,13.60
2023-04-24T04:36:48.838Z,13.59
2023-04-24T04:37:55.208Z,13.60
2023-04-24T04:39:02.147Z,13.63
2023-04-24T04:40:12.841Z,13.70
2023-04-24T04:41:23.023Z,13.73
2023-04-24T04:42:41.570Z,13.77
2023-04-24T04:44:06.839Z,13.78
2023-04-24T04:45:12.573Z,13.79
2023-04-24T04:46:18.202Z,13.85
2023-04-24T04:47:36.512Z,13.86
2023-04-24T04:48:41.516Z,13.86
2023-04-24T04:49:46.030Z,13.86
2023-04-24T04:50:50.695Z,13.91
2023-04-24T04:51:55.475Z,13.95
2023-04-24T04:53:02.882Z,13.95
2023-04-24T04:54:06.752Z,13.97
2023-04-24T04:55:10.804Z,13.99
2023-04-24T04:56:14.656Z,14.02
2023-04-24T04:57:19.548Z,14.05
2023-04-24T04:58:25.412Z,14.07
2023-04-24T04:59:30.074Z,14.12
2023-04-24T05:00:36.911Z,14.14
2023-04-24T05:03:20.732Z,14.22
2023-04-24T05:04:26.085Z,14.27
2023-04-24T05:05:31.397Z,14.31
2023-04-24T05:06:35.467Z,14.34
2023-04-24T05:07:39.778Z,14.34
2023-04-24T05:08:43.798Z,14.37
2023-04-24T05:09:48.597Z,14.41
2023-04-24T05:10:53.927Z,14.43
2023-04-24T05:11:57.957Z,14.46
2023-04-24T05:13:03.174Z,14.46
2023-04-24T05:14:07.323Z,14.48
2023-04-24T05:15:13.473Z,14.49
2023-04-24T05:16:18.952Z,14.58
2023-04-24T05:17:22.935Z,14.66
2023-04-24T05:18:27.102Z,14.72
2023-04-24T05:19:34.038Z,14.83
2023-04-24T05:20:39.527Z,14.97
2023-04-24T05:21:43.632Z,15.07
2023-04-24T05:22:47.520Z,15.29
2023-04-24T05:23:52.395Z,15.52
2023-04-24T05:24:57.447Z,15.70
2023-04-24T05:26:05.097Z,15.96
2023-04-24T05:27:11.105Z,16.23
2023-04-24T05:28:15.166Z,16.49
2023-04-24T05:29:20.500Z,16.70
2023-04-24T05:30:28.642Z,16.87
2023-04-24T05:31:33.191Z,17.08
2023-04-24T05:32:37.139Z,17.26
2023-04-24T05:33:41.475Z,17.48
2023-04-24T05:34:49.123Z,17.70
2023-04-24T05:35:53.165Z,17.92
2023-04-24T05:36:56.982Z,18.16
2023-04-24T05:38:00.684Z,18.23
2023-04-24T05:39:08.091Z,18.40
2023-04-24T05:40:13.052Z,18.64
2023-04-24T05:41:16.945Z,18.78
2023-04-24T05:42:21.429Z,18.89
2023-04-24T05:43:26.381Z,19.11
2023-04-24T05:44:30.126Z,19.40
2023-04-24T05:45:35.746Z,19.58
2023-04-24T05:46:39.649Z,19.60
2023-04-24T05:47:50.728Z,19.82
2023-04-24T05:48:58.154Z,19.98
2023-04-24T05:50:01.798Z,20.01
2023-04-24T05:51:06.087Z,20.20
2023-04-24T05:52:10.306Z,20.47
2023-04-24T05:53:14.433Z,20.56
2023-04-24T05:54:18.416Z,20.75
2023-04-24T05:55:22.161Z,20.99
2023-04-24T05:56:26.342Z,20.88
2023-04-24T05:57:30.695Z,20.73
2023-04-24T05:58:34.870Z,20.75
2023-04-24T05:59:54.357Z,20.77
2023-04-24T06:01:03.679Z,21.00
2023-04-24T06:02:08.826Z,21.04
2023-04-24T06:03:24.754Z,21.34
2023-04-24T06:04:29.563Z,21.32
2023-04-24T06:05:33.671Z,21.59
2023-04-24T06:06:38.111Z,21.70
2023-04-24T06:07:41.985Z,21.76
2023-04-24T06:08:46.613Z,21.95
2023-04-24T06:09:50.535Z,22.06
2023-04-24T06:10:54.720Z,22.24
2023-04-24T06:11:59.773Z,22.45
2023-04-24T06:13:03.965Z,22.46
2023-04-24T06:14:07.846Z,22.60
2023-04-24T06:15:12.044Z,22.53
2023-04-24T06:16:16.189Z,22.53
2023-04-24T06:17:23.209Z,22.69
2023-04-24T06:18:27.827Z,22.83
2023-04-24T06:19:31.880Z,22.84
2023-04-24T06:20:36.147Z,22.91
2023-04-24T06:21:42.993Z,23.15
2023-04-24T06:22:46.843Z,23.18
2023-04-24T06:23:51.275Z,23.20
2023-04-24T06:24:55.680Z,23.48
2023-04-24T06:26:00.690Z,23.73
2023-04-24T06:27:04.752Z,23.97
2023-04-24T06:28:09.574Z,24.23
2023-04-24T06:29:13.519Z,24.36
2023-04-24T06:30:17.778Z,24.47
2023-04-24T06:31:22.528Z,24.67
2023-04-24T06:32:26.924Z,24.97
2023-04-24T06:33:31.550Z,25.22
2023-04-24T06:34:37.748Z,25.45
2023-04-24T06:35:42.131Z,25.86
2023-04-24T06:36:46.728Z,26.12
2023-04-24T06:37:50.672Z,26.23
2023-04-24T06:38:55.274Z,26.26
2023-04-24T06:39:59.372Z,26.34
2023-04-24T06:41:05.005Z,26.53
2023-04-24T06:42:12.583Z,26.85
2023-04-24T06:43:16.742Z,26.74
2023-04-24T06:44:21.071Z,27.07
2023-04-24T06:45:25.083Z,26.91
2023-04-24T06:46:29.109Z,27.15
2023-04-24T06:47:33.474Z,27.23
2023-04-24T06:48:37.570Z,27.42
2023-04-24T06:49:41.436Z,27.26
2023-04-24T06:50:46.327Z,27.52
2023-04-24T06:51:50.222Z,27.95
2023-04-24T06:52:54.824Z,28.18
2023-04-24T06:53:59.023Z,28.32
2023-04-24T06:55:04.732Z,28.58
2023-04-24T06:56:09.218Z,28.64
2023-04-24T06:57:17.480Z,28.88
2023-04-24T06:58:24.459Z,28.97
2023-04-24T06:59:30.971Z,28.92
2023-04-24T07:00:35.102Z,28.96
2023-04-24T07:01:42.258Z,28.83
2023-04-24T07:02:46.412Z,28.71
2023-04-24T07:03:50.713Z,28.71
2023-04-24T07:04:54.918Z,28.91
2023-04-24T07:05:59.117Z,29.21
2023-04-24T07:07:03.549Z,28.86
2023-04-24T07:08:12.606Z,28.93
2023-04-24T07:09:28.529Z,29.28
2023-04-24T07:10:32.563Z,29.24
2023-04-24T07:11:37.944Z,29.64
2023-04-24T07:12:42.655Z,30.13
2023-04-24T07:13:47.125Z,30.04
2023-04-24T07:14:52.721Z,30.30
2023-04-24T07:15:57.613Z,30.66
2023-04-24T07:17:01.319Z,31.13
2023-04-24T07:18:08.019Z,31.16
2023-04-24T07:19:15.156Z,31.01
2023-04-24T07:20:19.660Z,31.41
2023-04-24T07:21:23.458Z,31.81
2023-04-24T07:22:31.630Z,32.15
2023-04-24T07:23:35.699Z,31.49
2023-04-24T07:24:39.588Z,31.36
2023-04-24T07:25:43.723Z,31.68
2023-04-24T07:26:48.002Z,31.92
2023-04-24T07:27:51.704Z,32.36
2023-04-24T07:28:56.134Z,32.54
2023-04-24T07:29:59.961Z,32.58
2023-04-24T07:31:04.487Z,33.13
2023-04-24T07:32:09.324Z,33.14
2023-04-24T07:33:17.404Z,33.02
2023-04-24T07:34:21.803Z,32.91
2023-04-24T07:35:28.984Z,33.00
2023-04-24T07:36:33.432Z,32.70
2023-04-24T07:37:38.019Z,32.91
2023-04-24T07:38:41.738Z,33.43
2023-04-24T07:39:46.296Z,33.29
2023-04-24T07:40:50.716Z,33.66
2023-04-24T07:41:54.732Z,33.50
2023-04-24T07:42:58.378Z,33.85
2023-04-24T07:44:03.090Z,34.26
2023-04-24T07:45:07.785Z,34.27
2023-04-24T07:46:11.781Z,34.31
2023-04-24T07:47:17.117Z,34.21
2023-04-24T07:48:23.259Z,34.25
2023-04-24T07:49:32.373Z,34.15
2023-04-24T07:50:37.434Z,34.15
2023-04-24T07:51:42.726Z,34.34
2023-04-24T07:52:48.505Z,34.37
2023-04-24T07:53:53.069Z,34.59
2023-04-24T07:55:01.472Z,34.64
2023-04-24T07:56:06.674Z,34.70
2023-04-24T07:57:11.181Z,34.72
2023-04-24T07:58:16.530Z,34.68
2023-04-24T07:59:26.389Z,34.49
2023-04-24T08:00:30.719Z,34.39
2023-04-24T08:01:35.158Z,33.88
2023-04-24T08:02:42.924Z,34.05
2023-04-24T08:03:50.187Z,34.64
2023-04-24T08:04:55.993Z,35.15
2023-04-24T08:06:00.924Z,35.48
2023-04-24T08:07:05.218Z,35.01
2023-04-24T08:08:09.788Z,35.57
2023-04-24T08:09:16.226Z,35.87
2023-04-24T08:10:20.166Z,35.69
2023-04-24T08:11:24.976Z,35.71
2023-04-24T08:12:32.532Z,35.64
2023-04-24T08:13:37.542Z,35.75
2023-04-24T08:14:42.165Z,35.29
2023-04-24T08:15:47.505Z,35.23
2023-04-24T08:16:51.423Z,35.42
2023-04-24T08:17:57.226Z,35.45
2023-04-24T08:19:02.867Z,35.31
2023-04-24T08:20:11.728Z,35.28
2023-04-24T08:21:18.390Z,35.00
2023-04-24T08:22:22.409Z,35.14
2023-04-24T08:23:34.175Z,35.13
2023-04-24T08:24:38.177Z,34.55
2023-04-24T08:25:54.872Z,33.31
2023-04-24T08:26:59.300Z,33.09
2023-04-24T08:28:07.152Z,33.24
2023-04-24T08:29:11.044Z,33.35
2023-04-24T08:30:24.587Z,33.46
2023-04-24T08:31:28.976Z,33.61
2023-04-24T08:32:33.355Z,33.90
2023-04-24T08:33:37.227Z,34.11
2023-04-24T08:34:41.365Z,34.46
2023-04-24T08:35:45.684Z,34.60
2023-04-24T08:36:50.237Z,34.47
2023-04-24T08:37:57.356Z,34.26
2023-04-24T08:39:01.006Z,34.21
2023-04-24T08:40:15.833Z,34.05
2023-04-24T08:41:20.845Z,34.08
2023-04-24T08:42:29.908Z,33.80
2023-04-24T08:43:38.053Z,34.07
2023-04-24T08:44:43.659Z,33.72
2023-04-24T08:45:51.491Z,33.64
2023-04-24T08:46:56.360Z,33.91
2023-04-24T08:48:01.482Z,34.00
2023-04-24T08:49:06.253Z,33.50
2023-04-24T08:50:11.588Z,33.13
2023-04-24T08:51:19.716Z,33.39
2023-04-24T08:52:24.509Z,33.11
2023-04-24T08:53:29.221Z,32.86
2023-04-24T08:54:36.293Z,32.79
2023-04-24T08:55:43.352Z,32.59
2023-04-24T08:56:50.153Z,32.30
2023-04-24T08:57:55.468Z,32.10
2023-04-24T08:59:00.263Z,31.83
2023-04-24T09:00:06.006Z,31.16
2023-04-24T09:01:11.631Z,31.16
2023-04-24T09:02:17.343Z,30.92
2023-04-24T09:03:23.585Z,30.84
2023-04-24T09:04:30.543Z,30.18
2023-04-24T09:05:35.121Z,29.66
2023-04-24T09:06:39.490Z,29.58
2023-04-24T09:07:52.567Z,29.42
2023-04-24T09:08:57.967Z,29.30
2023-04-24T09:10:04.381Z,29.07
2023-04-24T09:11:11.043Z,28.96
2023-04-24T09:12:16.186Z,28.99
2023-04-24T09:13:24.276Z,28.79
2023-04-24T09:14:29.817Z,28.59
2023-04-24T09:15:34.572Z,28.44
2023-04-24T09:16:40.076Z,28.36
2023-04-24T09:17:45.919Z,28.33
2023-04-24T09:18:50.781Z,28.33
2023-04-24T09:19:57.613Z,28.34
2023-04-24T09:21:12.111Z,28.23
2023-04-24T09:22:16.745Z,28.37
2023-04-24T09:23:20.845Z,28.40
2023-04-24T09:24:25.478Z,28.35
2023-04-24T09:25:39.726Z,28.33
2023-04-24T09:26:43.976Z,28.21
2023-04-24T09:27:56.574Z,28.05
2023-04-24T09:29:01.399Z,27.99
2023-04-24T09:30:06.791Z,27.87
2023-04-24T09:31:17.866Z,27.83
2023-04-24T09:32:27.218Z,27.79
2023-04-24T09:33:32.276Z,27.77
2023-04-24T09:34:37.099Z,27.68
2023-04-24T09:35:53.216Z,27.64
2023-04-24T09:36:57.056Z,27.50
2023-04-24T09:38:01.245Z,27.29
2023-04-24T09:39:12.417Z,27.14
2023-04-24T09:40:23.555Z,27.09
2023-04-24T09:41:33.047Z,27.11
2023-04-24T09:42:36.987Z,27.10
2023-04-24T09:43:40.875Z,27.01
2023-04-24T09:44:45.476Z,26.97
2023-04-24T09:45:49.235Z,26.83
2023-04-24T09:47:01.115Z,26.71
2023-04-24T09:48:07.614Z,26.63
2023-04-24T09:49:17.715Z,26.51
2023-04-24T09:50:22.746Z,26.44
2023-04-24T09:51:39.509Z,26.40
2023-04-24T09:53:02.201Z,26.33
2023-04-24T09:54:25.772Z,26.20
2023-04-24T09:55:30.564Z,26.06
2023-04-24T09:56:36.465Z,26.08
2023-04-24T09:58:10.464Z,25.98
2023-04-24T09:59:16.636Z,25.90
2023-04-24T10:00:30.123Z,25.87
2023-04-24T10:01:34.986Z,25.76
2023-04-24T10:02:39.115Z,25.72
2023-04-24T10:03:47.823Z,25.65
2023-04-24T10:05:01.104Z,25.69
2023-04-24T10:06:10.347Z,25.66
2023-04-24T10:07:18.351Z,25.71
2023-04-24T10:08:26.239Z,25.65
2023-04-24T10:09:30.484Z,25.49
2023-04-24T10:10:41.273Z,25.42
2023-04-24T10:11:48.830Z,25.39
2023-04-24T10:12:54.991Z,25.39
2023-04-24T10:14:00.274Z,25.26
2023-04-24T10:15:07.024Z,25.22
2023-04-24T10:16:12.032Z,25.16
2023-04-24T10:17:17.067Z,25.09
2023-04-24T10:18:23.099Z,25.13
2023-04-24T10:19:31.840Z,25.09
2023-04-24T10:20:40.210Z,25.06
2023-04-24T10:21:49.362Z,25.04
2023-04-24T10:22:56.229Z,25.03
2023-04-24T10:24:04.819Z,25.05
2023-04-24T10:25:11.283Z,24.96
2023-04-24T10:26:19.073Z,24.91
2023-04-24T10:27:24.473Z,24.90
2023-04-24T10:28:32.886Z,24.91
2023-04-24T10:29:40.162Z,24.91
2023-04-24T10:30:46.611Z,24.76
2023-04-24T10:31:51.081Z,24.68
2023-04-24T10:32:55.886Z,24.65
2023-04-24T10:34:02.695Z,24.57
2023-04-24T10:35:10.210Z,24.50
2023-04-24T10:36:17.561Z,24.48
2023-04-24T10:37:22.054Z,24.50
2023-04-24T10:38:31.592Z,24.42
2023-04-24T10:39:37.414Z,24.42
2023-04-24T10:40:43.776Z,24.41
2023-04-24T10:41:59.167Z,24.33
2023-04-24T10:43:11.136Z,24.28
2023-04-24T10:44:18.114Z,24.30
2023-04-24T10:45:26.014Z,24.17
2023-04-24T10:46:32.989Z,24.11
2023-04-24T10:47:43.516Z,23.95
2023-04-24T10:48:57.309Z,23.99
2023-04-24T10:50:01.969Z,23.94
2023-04-24T10:51:06.421Z,24.01
2023-04-24T10:52:11.979Z,23.87
2023-04-24T10:53:24.440Z,23.84
2023-04-24T10:54:35.104Z,23.88
2023-04-24T10:55:55.454Z,23.99
2023-04-24T10:57:25.815Z,24.05
2023-04-24T10:58:55.626Z,24.11
2023-04-24T11:00:23.137Z,24.16
2023-04-24T11:01:31.091Z,24.16
2023-04-24T11:02:49.922Z,24.25
2023-04-24T11:04:04.340Z,24.27
2023-04-24T11:05:12.251Z,24.37
2023-04-24T11:06:17.568Z,24.36
2023-04-24T11:07:22.700Z,24.38
2023-04-24T11:08:34.889Z,24.40
2023-04-24T11:09:44.830Z,24.40
2023-04-24T11:11:14.230Z,24.40
2023-04-24T11:12:20.542Z,24.41
2023-04-24T11:13:50.498Z,24.41
2023-04-24T11:14:58.067Z,24.39
2023-04-24T11:16:36.300Z,24.40
2023-04-24T11:17:43.950Z,24.43
2023-04-24T11:18:55.723Z,24.50
2023-04-24T11:20:27.677Z,24.57
2023-04-24T11:21:57.165Z,24.65
2023-04-24T11:23:07.852Z,24.65
2023-04-24T11:24:40.414Z,24.68
2023-04-24T11:25:44.833Z,24.68
2023-04-24T11:26:48.890Z,24.54
2023-04-24T11:28:06.132Z,24.55
2023-04-24T11:29:10.603Z,24.53
2023-04-24T11:30:22.305Z,24.56
2023-04-24T11:31:41.804Z,24.54
2023-04-24T11:32:51.859Z,24.46
2023-04-24T11:33:56.279Z,24.54
2023-04-24T11:35:26.356Z,24.51
2023-04-24T11:36:34.249Z,24.45
2023-04-24T11:37:44.033Z,24.44
2023-04-24T11:38:48.845Z,24.44
2023-04-24T11:40:00.785Z,24.45
2023-04-24T11:41:07.618Z,24.47
2023-04-24T11:42:15.988Z,24.40
2023-04-24T11:43:22.380Z,24.37
2023-04-24T11:44:29.708Z,24.31
2023-04-24T11:45:33.575Z,24.29
2023-04-24T11:46:39.309Z,24.27
2023-04-24T11:47:45.961Z,24.24
2023-04-24T11:48:50.207Z,24.32
2023-04-24T11:49:54.058Z,24.34
2023-04-24T11:51:03.120Z,24.36
2023-04-24T11:52:11.902Z,24.35
2023-04-24T11:53:16.204Z,24.44
2023-04-24T11:54:20.438Z,24.46
2023-04-24T11:55:28.317Z,24.47
2023-04-24T11:56:32.793Z,24.44
2023-04-24T11:57:37.825Z,24.44
2023-04-24T11:58:41.873Z,24.46
2023-04-24T11:59:45.594Z,24.54
2023-04-24T12:01:02.499Z,24.56
2023-04-24T12:02:07.853Z,24.53
2023-04-24T12:03:16.662Z,24.52
2023-04-24T12:04:20.794Z,24.57
2023-04-24T12:05:28.922Z,24.63
2023-04-24T12:06:36.344Z,24.67
2023-04-24T12:07:46.807Z,24.70
2023-04-24T12:09:01.730Z,24.66
2023-04-24T12:10:10.737Z,24.67
2023-04-24T12:11:19.187Z,24.60
2023-04-24T12:12:30.122Z,24.60
2023-04-24T12:13:35.481Z,24.52
2023-04-24T12:14:51.585Z,24.47
2023-04-24T12:15:56.879Z,24.42
2023-04-24T12:17:01.070Z,24.41
2023-04-24T12:18:05.682Z,24.42
2023-04-24T12:19:09.720Z,24.40
2023-04-24T12:20:15.374Z,24.33
2023-04-24T12:21:25.092Z,24.32
2023-04-24T12:22:30.624Z,24.24
2023-04-24T12:23:39.221Z,24.25
2023-04-24T12:25:03.712Z,24.26
2023-04-24T12:26:07.935Z,24.21
2023-04-24T12:27:21.979Z,24.26
2023-04-24T12:28:26.163Z,24.26
2023-04-24T12:29:30.523Z,24.21
2023-04-24T12:30:49.899Z,24.09
2023-04-24T12:31:54.549Z,24.10
2023-04-24T12:33:02.169Z,24.05
2023-04-24T12:34:21.858Z,23.97
2023-04-24T12:35:29.769Z,23.96
2023-04-24T12:36:33.857Z,23.96
2023-04-24T12:37:38.374Z,23.91
2023-04-24T12:38:47.677Z,23.92
2023-04-24T12:40:05.336Z,23.92
2023-04-24T12:41:15.510Z,23.84
2023-04-24T12:42:31.728Z,23.78
2023-04-24T12:43:37.270Z,23.79
2023-04-24T12:44:41.371Z,23.76
2023-04-24T12:46:00.675Z,23.76
2023-04-24T12:47:06.008Z,23.71
2023-04-24T12:48:11.282Z,23.67
2023-04-24T12:49:20.847Z,23.69
2023-04-24T12:50:25.286Z,23.67
2023-04-24T12:51:34.522Z,23.57
2023-04-24T12:52:39.821Z,23.53
2023-04-24T12:53:44.768Z,23.43
2023-04-24T12:54:52.513Z,23.34
2023-04-24T12:55:57.872Z,23.29
2023-04-24T12:57:10.744Z,23.03
2023-04-24T12:58:16.252Z,22.89
2023-04-24T12:59:28.435Z,22.91
2023-04-24T13:00:45.284Z,22.67
2023-04-24T13:01:49.561Z,22.54
2023-04-24T13:02:53.829Z,22.42
2023-04-24T13:04:03.691Z,22.27
2023-04-24T13:05:12.866Z,22.21
2023-04-24T13:06:16.929Z,22.19
2023-04-24T13:07:25.131Z,22.01
2023-04-24T13:08:32.715Z,21.98
2023-04-24T13:09:37.300Z,21.95
2023-04-24T13:10:42.852Z,21.90
2023-04-24T13:11:46.869Z,21.96
2023-04-24T13:12:51.898Z,21.97
2023-04-24T13:14:00.172Z,21.94
2023-04-24T13:15:04.796Z,21.88
2023-04-24T13:16:12.774Z,21.82
2023-04-24T13:17:17.062Z,21.78
2023-04-24T13:18:21.338Z,21.64
2023-04-24T13:19:27.981Z,21.48
2023-04-24T13:20:32.561Z,21.48
2023-04-24T13:21:36.982Z,21.42
2023-04-24T13:22:46.922Z,21.24
2023-04-24T13:23:56.971Z,21.23
2023-04-24T13:25:02.606Z,21.19
2023-04-24T13:26:06.660Z,21.20
2023-04-24T13:27:11.003Z,21.15
2023-04-24T13:28:15.076Z,21.11
2023-04-24T13:29:19.445Z,21.09
2023-04-24T13:30:23.451Z,21.08
2023-04-24T13:31:27.494Z,21.06
2023-04-24T13:32:32.099Z,21.04
2023-04-24T13:33:36.195Z,21.08
2023-04-24T13:34:40.109Z,21.06
2023-04-24T13:35:43.799Z,20.99
2023-04-24T13:36:47.719Z,20.91
2023-04-24T13:37:52.376Z,20.85
2023-04-24T13:38:57.481Z,20.84
2023-04-24T13:40:01.435Z,20.79
2023-04-24T13:41:05.290Z,20.82
2023-04-24T13:42:12.971Z,20.74
2023-04-24T13:43:17.040Z,20.68
2023-04-24T13:44:23.622Z,20.61
2023-04-24T13:45:27.433Z,20.60
2023-04-24T13:46:32.081Z,20.57
2023-04-24T13:47:37.287Z,20.51
2023-04-24T13:48:41.405Z,20.44
2023-04-24T13:49:45.297Z,20.45
2023-04-24T13:50:51.076Z,20.42
2023-04-24T13:51:57.522Z,20.42
2023-04-24T13:53:03.117Z,20.38
2023-04-24T13:54:10.168Z,20.42
2023-04-24T13:55:14.597Z,20.31
2023-04-24T13:56:19.142Z,20.31
2023-04-24T13:57:26.710Z,20.22
2023-04-24T13:58:30.857Z,20.20
2023-04-24T13:59:38.489Z,20.22
2023-04-24T14:00:48.193Z,20.23
2023-04-24T14:01:52.671Z,20.23
2023-04-24T14:02:56.746Z,20.22
2023-04-24T14:04:01.663Z,20.21
2023-04-24T14:05:07.904Z,20.19
2023-04-24T14:06:12.230Z,20.19
2023-04-24T14:07:16.924Z,20.18
2023-04-24T14:08:23.570Z,20.14
2023-04-24T14:09:27.421Z,20.15
2023-04-24T14:10:31.916Z,20.13
2023-04-24T14:11:36.929Z,20.08
2023-04-24T14:12:41.246Z,20.13
2023-04-24T14:13:46.813Z,20.10
2023-04-24T14:14:53.656Z,20.07
2023-04-24T14:15:58.072Z,20.02
2023-04-24T14:17:02.295Z,20.01
2023-04-24T14:18:06.602Z,19.99
2023-04-24T14:19:11.810Z,19.98
2023-04-24T14:20:15.720Z,20.02
2023-04-24T14:21:19.685Z,20.02
2023-04-24T14:22:24.537Z,20.04
2023-04-24T14:23:28.734Z,20.03
2023-04-24T14:24:32.886Z,20.07
2023-04-24T14:25:37.544Z,20.10
2023-04-24T14:26:41.605Z,20.13
2023-04-24T14:27:45.947Z,20.11
2023-04-24T14:28:51.097Z,20.09
2023-04-24T14:29:54.972Z,20.03
2023-04-24T14:30:59.350Z,19.99
2023-04-24T14:32:03.326Z,19.96
2023-04-24T14:33:09.211Z,19.98
2023-04-24T14:34:15.594Z,19.94
2023-04-24T14:35:19.781Z,19.93
2023-04-24T14:36:23.648Z,19.94
2023-04-24T14:37:27.751Z,19.95
2023-04-24T14:38:32.721Z,19.90
2023-04-24T14:39:36.749Z,19.92
2023-04-24T14:41:49.426Z,19.97
2023-04-24T14:42:58.539Z,19.93
2023-04-24T14:44:04.489Z,19.95
2023-04-24T14:45:11.035Z,19.88
2023-04-24T14:46:26.548Z,19.83
2023-04-24T14:47:31.076Z,19.79
2023-04-24T14:48:35.189Z,19.74
2023-04-24T14:49:39.813Z,19.72
2023-04-24T14:50:44.008Z,19.71
2023-04-24T14:51:49.432Z,19.67
2023-04-24T14:52:53.377Z,19.58
2023-04-24T14:53:59.760Z,19.56
2023-04-24T14:55:03.966Z,19.58
2023-04-24T14:56:10.371Z,19.50
2023-04-24T14:57:16.583Z,19.48
2023-04-24T14:58:22.987Z,19.47
2023-04-24T14:59:31.790Z,19.43
2023-04-24T15:00:36.111Z,19.42
2023-04-24T15:01:40.338Z,19.40
2023-04-24T15:02:46.158Z,19.40
2023-04-24T15:03:51.884Z,19.35
2023-04-24T15:04:58.327Z,19.36
2023-04-24T15:06:11.553Z,19.32
2023-04-24T15:07:19.514Z,19.35
2023-04-24T15:08:27.134Z,19.33
2023-04-24T15:09:38.820Z,19.30
2023-04-24T15:10:51.585Z,19.31
2023-04-24T15:11:57.968Z,19.27
2023-04-24T15:13:02.192Z,19.28
2023-04-24T15:14:11.137Z,19.24
2023-04-24T15:15:17.513Z,19.24
2023-04-24T15:16:21.928Z,19.26
2023-04-24T15:17:28.442Z,19.26
2023-04-24T15:18:35.416Z,19.28
2023-04-24T15:19:50.536Z,19.32
2023-04-24T15:20:54.917Z,19.33
2023-04-24T15:21:59.063Z,19.32
2023-04-24T15:23:04.110Z,19.31
2023-04-24T15:24:08.846Z,19.35
2023-04-24T15:25:12.865Z,19.34
2023-04-24T15:26:17.227Z,19.34
2023-04-24T15:27:22.988Z,19.34
2023-04-24T15:28:26.962Z,19.36
2023-04-24T15:29:31.092Z,19.36
2023-04-24T15:30:35.254Z,19.39
2023-04-24T15:31:41.393Z,19.38
2023-04-24T15:32:47.899Z,19.37
2023-04-24T15:33:52.396Z,19.32
2023-04-24T15:35:10.702Z,19.29
2023-04-24T15:36:18.427Z,19.24
2023-04-24T15:37:22.488Z,19.25